createdAt,value
2022-08-23T00:02:28.194Z,100065.34
2022-08-23T00:05:08.167Z,100071.01
2022-08-23T00:07:40.399Z,100073.81
2022-08-23T00:10:16.469Z,100075.89
2022-08-23T00:12:46.196Z,100079.71
2022-08-23T00:15:17.224Z,100072.61
2022-08-23T00:17:45.301Z,100069.30
2022-08-23T00:20:17.114Z,100064.66
2022-08-23T00:22:46.190Z,100061.61
2022-08-23T00:25:16.275Z,100065.96
2022-08-23T00:27:44.943Z,100067.73
2022-08-23T00:30:15.372Z,100066.35
2022-08-23T00:32:45.535Z,100068.11
2022-08-23T00:35:26.659Z,100063.32
2022-08-23T00:38:32.611Z,100075.64
2022-08-23T00:40:51.904Z,100075.30
2022-08-23T00:44:00.470Z,100077.92
2022-08-23T00:47:14.715Z,100079.81
2022-08-23T00:50:23.892Z,100081.97
2022-08-23T00:53:23.952Z,100085.02
2022-08-23T00:55:57.852Z,100086.18
2022-08-23T00:58:27.370Z,100084.16
2022-08-23T01:00:59.041Z,100085.88
2022-08-23T01:03:30.733Z,100088.20
2022-08-23T01:06:32.687Z,100095.10
2022-08-23T01:09:08.517Z,100105.95
2022-08-23T01:12:05.607Z,100123.96
2022-08-23T01:14:41.087Z,100151.91
2022-08-23T01:17:16.053Z,100143.02
2022-08-23T01:19:56.525Z,100154.65
2022-08-23T01:22:42.937Z,100166.10
2022-08-23T01:25:14.134Z,100169.79
2022-08-23T01:27:43.207Z,100158.48
2022-08-23T01:30:13.615Z,100146.62
2022-08-23T01:32:46.779Z,100156.21
2022-08-23T01:35:17.564Z,100161.13
2022-08-23T01:37:46.970Z,100163.49
2022-08-23T01:40:14.958Z,100154.62
2022-08-23T01:42:43.000Z,100153.67
2022-08-23T01:45:13.143Z,100132.52
2022-08-23T01:47:41.994Z,100115.21
2022-08-23T01:50:13.041Z,100129.58
2022-08-23T01:52:47.207Z,100135.58
2022-08-23T01:55:17.377Z,100149.17
2022-08-23T01:57:52.140Z,100152.73
2022-08-23T02:00:23.838Z,100164.59
2022-08-23T02:02:51.945Z,100169.27
2022-08-23T02:05:20.260Z,100176.70
2022-08-23T02:07:48.384Z,100181.66
2022-08-23T02:10:16.553Z,100180.92
2022-08-23T02:12:44.867Z,100176.11
2022-08-23T02:15:14.097Z,100174.85
2022-08-23T02:17:42.096Z,100156.11
2022-08-23T02:20:10.872Z,100143.62
2022-08-23T02:22:39.776Z,100142.71
2022-08-23T02:25:08.271Z,100139.70
2022-08-23T02:27:36.241Z,100133.74
2022-08-23T02:30:05.265Z,100128.73
2022-08-23T02:32:33.262Z,100135.95
2022-08-23T02:35:05.137Z,100137.80
2022-08-23T02:37:35.036Z,100135.98
2022-08-23T02:40:05.803Z,100131.19
2022-08-23T02:42:34.061Z,100121.47
2022-08-23T02:45:02.384Z,100123.68
2022-08-23T02:47:30.579Z,100123.61
2022-08-23T02:49:58.638Z,100107.77
2022-08-23T02:52:26.711Z,100107.40
2022-08-23T02:54:58.233Z,100110.45
2022-08-23T02:57:26.894Z,100113.68
2022-08-23T02:59:55.442Z,100111.58
2022-08-23T03:02:23.350Z,100100.74
2022-08-23T03:04:51.367Z,100100.77
2022-08-23T03:07:19.481Z,100093.83
2022-08-23T03:09:47.358Z,100087.27
2022-08-23T03:12:15.181Z,100084.39
2022-08-23T03:14:43.058Z,100089.39
2022-08-23T03:17:12.245Z,100089.75
2022-08-23T03:19:40.200Z,100087.13
2022-08-23T03:22:08.085Z,100086.02
2022-08-23T03:24:36.584Z,100085.29
2022-08-23T03:27:05.410Z,100089.38
2022-08-23T03:29:34.149Z,100086.58
2022-08-23T03:32:03.995Z,100087.80
2022-08-23T03:34:32.555Z,100089.96
2022-08-23T03:37:00.853Z,100091.70
2022-08-23T03:39:29.005Z,100089.20
2022-08-23T03:41:57.809Z,100083.64
2022-08-23T03:44:25.808Z,100082.14
2022-08-23T03:46:54.722Z,100079.50
2022-08-23T03:49:22.732Z,100079.85
2022-08-23T03:51:50.590Z,100077.93
2022-08-23T03:54:18.415Z,100079.34
2022-08-23T03:57:01.025Z,100075.41
2022-08-23T03:59:31.426Z,100076.84
2022-08-23T04:02:00.312Z,100070.55
2022-08-23T04:04:28.627Z,100068.15
2022-08-23T04:06:56.626Z,100067.71
2022-08-23T04:09:24.736Z,100068.06
2022-08-23T04:11:53.939Z,100070.73
2022-08-23T04:14:21.886Z,100064.23
2022-08-23T04:16:49.736Z,100064.08
2022-08-23T04:19:17.726Z,100072.06
2022-08-23T04:21:51.103Z,100069.14
2022-08-23T04:24:19.985Z,100080.96
2022-08-23T04:26:49.634Z,100078.63
2022-08-23T04:29:23.000Z,100091.33
2022-08-23T04:32:05.589Z,100094.89
2022-08-23T04:34:40.530Z,100100.71
2022-08-23T04:37:13.839Z,100096.02
2022-08-23T04:40:00.843Z,100098.92
2022-08-23T04:42:30.415Z,100101.04
2022-08-23T04:44:58.319Z,100105.19
2022-08-23T04:47:26.488Z,100117.52
2022-08-23T04:49:54.310Z,100119.73
2022-08-23T04:52:22.639Z,100122.64
2022-08-23T04:54:50.587Z,100123.81
2022-08-23T04:57:18.446Z,100123.17
2022-08-23T04:59:46.286Z,100120.76
2022-08-23T05:02:14.592Z,100122.09
2022-08-23T05:04:42.595Z,100123.06
2022-08-23T05:07:11.036Z,100128.42
2022-08-23T05:09:39.219Z,100133.96
2022-08-23T05:12:07.350Z,100136.02
2022-08-23T05:14:35.326Z,100139.78
2022-08-23T05:17:03.499Z,100141.75
2022-08-23T05:19:33.616Z,100143.27
2022-08-23T05:22:02.607Z,100145.03
2022-08-23T05:24:30.886Z,100148.27
2022-08-23T05:26:59.565Z,100148.69
2022-08-23T05:29:27.650Z,100152.84
2022-08-23T05:31:55.811Z,100153.27
2022-08-23T05:34:24.090Z,100157.94
2022-08-23T05:36:55.883Z,100153.16
2022-08-23T05:39:30.397Z,100149.40
2022-08-23T05:42:06.730Z,100150.83
2022-08-23T05:44:36.305Z,100151.36
2022-08-23T05:47:11.382Z,100152.48
2022-08-23T05:49:41.086Z,100153.58
2022-08-23T05:52:12.680Z,100160.75
2022-08-23T05:54:42.448Z,100164.60
2022-08-23T05:57:10.719Z,100168.08
2022-08-23T05:59:40.450Z,100171.27
2022-08-23T06:02:08.606Z,100179.52
2022-08-23T06:04:36.784Z,100183.98
2022-08-23T06:07:06.939Z,100186.11
2022-08-23T06:09:35.169Z,100182.52
2022-08-23T06:12:03.855Z,100185.95
2022-08-23T06:14:31.944Z,100195.55
2022-08-23T06:17:00.408Z,100201.17
2022-08-23T06:19:28.706Z,100205.41
2022-08-23T06:21:57.163Z,100203.95
2022-08-23T06:24:26.885Z,100198.61
2022-08-23T06:26:55.056Z,100203.80
2022-08-23T06:29:23.155Z,100205.09
2022-08-23T06:31:53.345Z,100206.52
2022-08-23T06:34:33.815Z,100206.73
2022-08-23T06:37:08.689Z,100208.14
2022-08-23T06:39:38.446Z,100207.70
2022-08-23T06:42:34.823Z,100205.83
2022-08-23T06:44:59.185Z,100212.35
2022-08-23T06:47:27.452Z,100211.76
2022-08-23T06:49:58.137Z,100217.88
2022-08-23T06:52:27.756Z,100216.98
2022-08-23T06:54:55.913Z,100220.89
2022-08-23T06:57:25.855Z,100223.70
2022-08-23T06:59:53.909Z,100225.20
2022-08-23T07:02:21.996Z,100226.58
2022-08-23T07:04:54.317Z,100224.85
2022-08-23T07:07:22.678Z,100223.14
2022-08-23T07:09:50.680Z,100219.90
2022-08-23T07:12:20.077Z,100217.84
2022-08-23T07:14:48.234Z,100214.16
2022-08-23T07:17:16.241Z,100210.15
2022-08-23T07:19:44.280Z,100213.98
2022-08-23T07:22:12.157Z,100217.76
2022-08-23T07:24:40.049Z,100221.90
2022-08-23T07:27:09.740Z,100220.88
2022-08-23T07:29:39.844Z,100222.30
2022-08-23T07:32:09.117Z,100223.98
2022-08-23T07:34:37.685Z,100224.16
2022-08-23T07:37:15.533Z,100226.55
2022-08-23T07:39:44.684Z,100231.13
2022-08-23T07:42:23.652Z,100229.04
2022-08-23T07:44:53.592Z,100229.08
2022-08-23T07:47:22.646Z,100233.83
2022-08-23T07:49:51.212Z,100232.09
2022-08-23T07:52:19.120Z,100229.14
2022-08-23T07:54:48.478Z,100229.54
2022-08-23T07:57:19.192Z,100232.08
2022-08-23T07:59:47.909Z,100235.83
2022-08-23T08:02:15.939Z,100238.02
2022-08-23T08:04:44.519Z,100237.70
2022-08-23T08:07:21.171Z,100243.17
2022-08-23T08:09:49.730Z,100237.63
2022-08-23T08:12:17.917Z,100239.30
2022-08-23T08:14:48.563Z,100234.89
2022-08-23T08:17:18.471Z,100239.80
2022-08-23T08:19:46.691Z,100241.98
2022-08-23T08:22:14.650Z,100242.20
2022-08-23T08:24:44.145Z,100241.15
2022-08-23T08:27:12.472Z,100241.42
2022-08-23T08:29:42.174Z,100239.94
2022-08-23T08:32:13.846Z,100242.08
2022-08-23T08:34:42.736Z,100245.03
2022-08-23T08:37:11.505Z,100243.65
2022-08-23T08:39:45.872Z,100240.00
2022-08-23T08:42:20.265Z,100240.30
2022-08-23T08:45:20.305Z,100239.51
2022-08-23T08:48:02.020Z,100242.20
2022-08-23T08:50:43.428Z,100246.67
2022-08-23T08:53:28.755Z,100243.02
2022-08-23T08:56:32.194Z,100245.70
2022-08-23T08:59:06.645Z,100243.64
2022-08-23T09:01:38.215Z,100246.41
2022-08-23T09:04:07.497Z,100247.45
2022-08-23T09:06:58.985Z,100246.73
2022-08-23T09:09:50.915Z,100247.67
2022-08-23T09:12:51.505Z,100247.96
2022-08-23T09:15:24.877Z,100244.04
2022-08-23T09:17:57.633Z,100248.43
2022-08-23T09:20:32.987Z,100247.03
2022-08-23T09:23:22.016Z,100244.91
2022-08-23T09:26:03.541Z,100242.57
2022-08-23T09:28:37.157Z,100247.13
2022-08-23T09:31:08.221Z,100248.81
2022-08-23T09:33:42.971Z,100245.15
2022-08-23T09:36:20.919Z,100248.33
2022-08-23T09:38:58.111Z,100249.79
2022-08-23T09:41:32.936Z,100249.84
2022-08-23T09:44:02.769Z,100254.48
2022-08-23T09:46:36.224Z,100252.70
2022-08-23T09:49:28.201Z,100256.02
2022-08-23T09:52:01.122Z,100253.88
2022-08-23T09:54:37.672Z,100253.64
2022-08-23T09:57:13.986Z,100248.61
2022-08-23T09:59:47.811Z,100250.59
2022-08-23T10:02:21.825Z,100249.98
2022-08-23T10:04:52.542Z,100246.94
2022-08-23T10:07:23.439Z,100241.57
2022-08-23T10:09:51.492Z,100243.96
2022-08-23T10:12:19.506Z,100245.88
2022-08-23T10:14:47.965Z,100246.73
2022-08-23T10:17:47.879Z,100252.23
2022-08-23T10:20:22.448Z,100249.86
2022-08-23T10:23:04.927Z,100251.73
2022-08-23T10:25:49.555Z,100253.36
2022-08-23T10:29:01.567Z,100250.85
2022-08-23T10:31:58.968Z,100247.29
2022-08-23T10:35:09.075Z,100247.65
2022-08-23T10:38:13.089Z,100247.11
2022-08-23T10:41:06.628Z,100246.45
2022-08-23T10:44:09.336Z,100247.47
2022-08-23T10:46:58.110Z,100242.25
2022-08-23T10:49:28.836Z,100241.86
2022-08-23T10:51:59.974Z,100244.67
2022-08-23T10:54:47.428Z,100245.90
2022-08-23T10:57:20.930Z,100248.27
2022-08-23T10:59:52.170Z,100247.55
2022-08-23T11:02:49.028Z,100252.36
2022-08-23T11:05:27.999Z,100252.48
2022-08-23T11:08:09.195Z,100256.63
2022-08-23T11:10:39.845Z,100258.55
2022-08-23T11:13:13.422Z,100254.42
2022-08-23T11:16:03.665Z,100251.77
2022-08-23T11:18:35.746Z,100249.55
2022-08-23T11:21:05.555Z,100252.23
2022-08-23T11:23:59.506Z,100245.06
2022-08-23T11:26:27.622Z,100244.23
2022-08-23T11:29:07.623Z,100244.14
2022-08-23T11:31:45.218Z,100251.09
2022-08-23T11:34:29.378Z,100253.15
2022-08-23T11:37:21.144Z,100249.57
2022-08-23T11:39:58.212Z,100246.30
2022-08-23T11:42:38.249Z,100248.05
2022-08-23T11:45:28.080Z,100243.85
2022-08-23T11:48:22.945Z,100249.30
2022-08-23T11:50:55.694Z,100249.59
2022-08-23T11:53:47.923Z,100249.89
2022-08-23T11:56:16.477Z,100252.70
2022-08-23T11:59:03.583Z,100251.60
2022-08-23T12:01:47.172Z,100249.09
2022-08-23T12:04:37.655Z,100246.39
2022-08-23T12:07:13.196Z,100244.07
2022-08-23T12:09:44.208Z,100243.34
2022-08-23T12:12:25.610Z,100239.77
2022-08-23T12:15:02.239Z,100244.88
2022-08-23T12:17:34.144Z,100240.11
2022-08-23T12:20:22.795Z,100243.30
2022-08-23T12:22:52.964Z,100242.67
2022-08-23T12:25:22.810Z,100238.05
2022-08-23T12:27:57.816Z,100239.20
2022-08-23T12:30:46.991Z,100243.45
2022-08-23T12:33:42.288Z,100239.46
2022-08-23T12:36:31.917Z,100240.87
2022-08-23T12:39:20.411Z,100237.65
2022-08-23T12:41:48.725Z,100237.55
2022-08-23T12:44:21.997Z,100236.90
2022-08-23T12:46:51.435Z,100236.54
2022-08-23T12:49:32.573Z,100233.17
2022-08-23T12:52:06.559Z,100232.30
2022-08-23T12:54:49.979Z,100230.42
2022-08-23T12:57:22.077Z,100227.71
2022-08-23T13:00:17.299Z,100228.13
2022-08-23T13:03:10.501Z,100223.74
2022-08-23T13:06:07.550Z,100223.34
2022-08-23T13:08:51.049Z,100221.25
2022-08-23T13:11:22.874Z,100220.75
2022-08-23T13:13:51.119Z,100221.09
2022-08-23T13:16:28.487Z,100217.55
2022-08-23T13:19:14.868Z,100207.52
2022-08-23T13:21:43.169Z,100209.24
2022-08-23T13:24:38.313Z,100203.69
2022-08-23T13:27:13.998Z,100200.80
2022-08-23T13:29:55.279Z,100197.96
2022-08-23T13:32:28.333Z,100187.74
2022-08-23T13:35:34.103Z,100183.49
2022-08-23T13:38:08.308Z,100181.13
2022-08-23T13:41:14.098Z,100176.25
2022-08-23T13:43:45.184Z,100178.69
2022-08-23T13:46:23.174Z,100182.95
2022-08-23T13:48:57.276Z,100188.05
2022-08-23T13:51:37.078Z,100195.55
2022-08-23T13:54:12.022Z,100199.16
2022-08-23T13:56:49.817Z,100206.83
2022-08-23T13:59:39.753Z,100209.09
2022-08-23T14:02:14.625Z,100208.73
2022-08-23T14:04:43.044Z,100207.78
2022-08-23T14:07:12.609Z,100206.52
2022-08-23T14:09:41.678Z,100207.13
2022-08-23T14:12:23.090Z,100209.60
2022-08-23T14:14:51.518Z,100207.85
2022-08-23T14:17:20.560Z,100205.45
2022-08-23T14:22:39.051Z,100203.78
2022-08-23T14:25:07.995Z,100201.42
2022-08-23T14:27:38.714Z,100198.30
2022-08-23T14:30:08.737Z,100196.73
2022-08-23T14:32:38.878Z,100195.55
2022-08-23T14:35:08.504Z,100199.23
2022-08-23T14:40:29.895Z,100195.08
2022-08-23T14:42:58.935Z,100198.70
2022-08-23T14:45:27.638Z,100198.98
2022-08-23T14:47:55.631Z,100198.15
2022-08-23T14:50:23.582Z,100201.23
2022-08-23T14:52:51.976Z,100205.20
2022-08-23T14:55:24.385Z,100210.02
2022-08-23T14:57:53.055Z,100211.40
2022-08-23T15:00:21.253Z,100208.86
2022-08-23T15:02:50.458Z,100208.71
2022-08-23T15:05:19.675Z,100204.77
2022-08-23T15:07:47.638Z,100206.20
2022-08-23T15:13:27.359Z,100210.48
2022-08-23T15:15:54.174Z,100212.08
2022-08-23T15:18:22.925Z,100212.55
2022-08-23T15:20:52.400Z,100205.54
2022-08-23T15:23:21.361Z,100203.11
2022-08-23T15:25:49.896Z,100202.38
2022-08-23T15:28:21.399Z,100204.56
2022-08-23T15:30:51.654Z,100201.22
2022-08-23T15:33:24.709Z,100205.87
2022-08-23T15:36:01.117Z,100212.61
2022-08-23T15:38:31.677Z,100215.50
2022-08-23T15:41:00.868Z,100218.15
2022-08-23T15:43:34.168Z,100216.38
2022-08-23T15:46:16.319Z,100212.79
2022-08-23T15:48:53.651Z,100211.20
2022-08-23T15:51:21.958Z,100209.17
2022-08-23T15:53:50.144Z,100204.94
2022-08-23T15:56:27.505Z,100208.70
2022-08-23T15:58:56.196Z,100207.41
2022-08-23T16:01:25.967Z,100213.06
2022-08-23T16:03:54.526Z,100219.47
2022-08-23T16:06:22.835Z,100223.44
2022-08-23T16:08:53.035Z,100230.05
2022-08-23T16:11:24.369Z,100228.59
2022-08-23T16:13:55.764Z,100229.88
2022-08-23T16:16:29.631Z,100230.68
2022-08-23T16:18:59.445Z,100232.03
2022-08-23T16:21:30.590Z,100233.54
2022-08-23T16:23:59.938Z,100235.70
2022-08-23T16:26:34.620Z,100232.30
2022-08-23T16:29:07.289Z,100232.24
2022-08-23T16:31:39.113Z,100232.53
2022-08-23T16:34:12.135Z,100238.65
2022-08-23T16:36:43.645Z,100239.07
2022-08-23T16:39:12.888Z,100240.88
2022-08-23T16:41:40.970Z,100245.89
2022-08-23T16:44:08.984Z,100249.90
2022-08-23T16:46:37.435Z,100257.69
2022-08-23T16:49:05.350Z,100266.61
2022-08-23T16:51:33.190Z,100269.63
2022-08-23T16:54:02.209Z,100279.04
2022-08-23T16:56:32.465Z,100276.48
2022-08-23T16:59:00.514Z,100280.48
2022-08-23T17:01:29.699Z,100283.91
2022-08-23T17:03:57.864Z,100281.81
2022-08-23T17:06:25.898Z,100285.47
2022-08-23T17:08:54.461Z,100288.08
2022-08-23T17:11:22.658Z,100291.98
2022-08-23T17:13:53.351Z,100297.42
2022-08-23T17:16:22.615Z,100308.88
2022-08-23T17:18:51.291Z,100310.84
2022-08-23T17:21:22.183Z,100305.94
2022-08-23T17:23:50.195Z,100311.10
2022-08-23T17:26:18.714Z,100317.20
2022-08-23T17:28:46.970Z,100320.73
2022-08-23T17:31:16.338Z,100317.13
2022-08-23T17:33:44.315Z,100319.13
2022-08-23T17:36:32.798Z,100319.19
2022-08-23T17:39:02.525Z,100323.22
2022-08-23T17:41:30.525Z,100325.45
2022-08-23T17:44:07.416Z,100329.13
2022-08-23T17:46:37.414Z,100330.59
2022-08-23T17:49:06.110Z,100335.91
2022-08-23T17:51:36.835Z,100337.73
2022-08-23T17:54:05.724Z,100336.38
2022-08-23T17:56:33.715Z,100338.88
2022-08-23T17:59:01.633Z,100337.18
2022-08-23T18:01:30.832Z,100331.67
2022-08-23T18:03:59.096Z,100328.04
2022-08-23T18:06:28.544Z,100328.47
2022-08-23T18:08:56.526Z,100331.02
2022-08-23T18:11:25.647Z,100331.14
2022-08-23T18:13:53.706Z,100333.17
2022-08-23T18:16:22.196Z,100342.78
2022-08-23T18:18:50.257Z,100345.91
2022-08-23T18:21:19.705Z,100350.98
2022-08-23T18:23:48.194Z,100357.64
2022-08-23T18:26:34.917Z,100363.35
2022-08-23T18:29:03.731Z,100364.04
2022-08-23T18:31:32.644Z,100367.64
2022-08-23T18:34:01.430Z,100365.62
2022-08-23T18:36:30.115Z,100365.84
2022-08-23T18:38:58.528Z,100366.46
2022-08-23T18:41:26.710Z,100367.11
2022-08-23T18:43:54.732Z,100370.45
2022-08-23T18:46:23.504Z,100373.63
2022-08-23T18:48:53.557Z,100378.63
2022-08-23T18:51:22.829Z,100377.98
2022-08-23T18:53:50.815Z,100381.98
2022-08-23T18:56:19.295Z,100378.95
2022-08-23T18:58:48.279Z,100381.88
2022-08-23T19:01:39.810Z,100382.14
2022-08-23T19:04:10.834Z,100379.04
2022-08-23T19:06:40.641Z,100384.08
2022-08-23T19:09:12.919Z,100391.72
2022-08-23T19:11:42.844Z,100396.27
2022-08-23T19:14:12.854Z,100391.76
2022-08-23T19:16:47.236Z,100389.13
2022-08-23T19:19:19.444Z,100386.40
2022-08-23T19:21:49.439Z,100384.92
2022-08-23T19:24:24.209Z,100378.95
2022-08-23T19:26:52.756Z,100380.59
2022-08-23T19:29:21.978Z,100380.46
2022-08-23T19:31:50.500Z,100385.48
2022-08-23T19:34:20.833Z,100388.23
2022-08-23T19:36:56.720Z,100392.86
2022-08-23T19:39:29.918Z,100389.93
2022-08-23T19:41:58.397Z,100388.07
2022-08-23T19:44:28.256Z,100385.40
2022-08-23T19:46:57.036Z,100380.52
2022-08-23T19:49:25.059Z,100378.52
2022-08-23T19:51:53.115Z,100378.64
2022-08-23T19:54:21.067Z,100382.88
2022-08-23T19:56:54.924Z,100388.27
2022-08-23T19:59:27.994Z,100391.20
2022-08-23T20:01:58.265Z,100397.04
2022-08-23T20:04:29.619Z,100400.98
2022-08-23T20:06:59.712Z,100401.08
2022-08-23T20:09:29.364Z,100401.96
2022-08-23T20:11:58.301Z,100400.05
2022-08-23T20:14:28.156Z,100403.91
2022-08-23T20:16:57.028Z,100401.70
2022-08-23T20:19:25.714Z,100402.17
2022-08-23T20:22:16.894Z,100401.73
2022-08-23T20:24:53.271Z,100402.36
2022-08-23T20:27:30.646Z,100402.39
2022-08-23T20:30:01.605Z,100405.52
2022-08-23T20:32:31.397Z,100404.18
2022-08-23T20:35:04.875Z,100406.17
2022-08-23T20:37:33.120Z,100403.10
2022-08-23T20:40:01.365Z,100398.36
2022-08-23T20:42:29.588Z,100401.77
2022-08-23T20:44:57.637Z,100397.59
2022-08-23T20:47:25.735Z,100401.75
2022-08-23T20:49:53.724Z,100399.34
2022-08-23T20:52:21.857Z,100400.14
2022-08-23T20:54:49.775Z,100400.81
2022-08-23T20:57:18.313Z,100398.98
2022-08-23T20:59:46.595Z,100396.91
2022-08-23T21:02:14.673Z,100393.52
2022-08-23T21:04:42.611Z,100393.95
2022-08-23T21:07:11.875Z,100392.63
2022-08-23T21:09:40.045Z,100395.50
2022-08-23T21:12:08.139Z,100390.14
2022-08-23T21:14:36.404Z,100384.62
2022-08-23T21:17:04.256Z,100381.98
2022-08-23T21:19:32.600Z,100379.27
2022-08-23T21:22:01.269Z,100375.66
2022-08-23T21:24:29.482Z,100373.62
2022-08-23T21:26:57.674Z,100366.23
2022-08-23T21:29:25.598Z,100361.77
2022-08-23T21:31:53.899Z,100363.67
2022-08-23T21:34:21.951Z,100364.22
2022-08-23T21:36:51.577Z,100361.21
2022-08-23T21:39:19.579Z,100364.77
2022-08-23T21:41:51.174Z,100368.25
2022-08-23T21:44:21.430Z,100372.00
2022-08-23T21:46:49.504Z,100372.20
2022-08-23T21:49:18.454Z,100372.45
2022-08-23T21:51:47.310Z,100370.29
2022-08-23T21:54:17.885Z,100372.72
2022-08-23T21:56:46.539Z,100374.15
2022-08-23T21:59:17.447Z,100374.42
2022-08-23T22:01:46.122Z,100372.08
2022-08-23T22:04:16.051Z,100375.96
2022-08-23T22:06:46.989Z,100376.24
2022-08-23T22:09:18.682Z,100375.11
2022-08-23T22:11:48.973Z,100375.64
2022-08-23T22:14:22.322Z,100377.23
2022-08-23T22:16:55.049Z,100376.36
2022-08-23T22:19:23.668Z,100376.15
2022-08-23T22:21:52.921Z,100375.89
2022-08-23T22:24:25.531Z,100371.58
2022-08-23T22:26:55.784Z,100369.60
2022-08-23T22:29:24.235Z,100367.11
2022-08-23T22:31:52.738Z,100365.35
2022-08-23T22:34:20.717Z,100362.93
2022-08-23T22:36:52.441Z,100367.29
2022-08-23T22:39:23.157Z,100366.65
2022-08-23T22:41:51.374Z,100367.86
2022-08-23T22:44:19.463Z,100368.30
2022-08-23T22:46:47.790Z,100367.10
2022-08-23T22:49:16.119Z,100362.33
2022-08-23T22:51:44.724Z,100368.47
2022-08-23T22:54:15.050Z,100375.35
2022-08-23T22:56:46.895Z,100379.11
2022-08-23T22:59:16.286Z,100380.95
2022-08-23T23:01:52.007Z,100383.38
2022-08-23T23:04:22.669Z,100380.42
2022-08-23T23:06:52.087Z,100382.35
2022-08-23T23:09:20.033Z,100384.27
2022-08-23T23:11:48.950Z,100389.90
2022-08-23T23:14:18.995Z,100390.15
2022-08-23T23:16:49.714Z,100391.98
2022-08-23T23:19:40.067Z,100389.00
2022-08-23T23:22:08.861Z,100386.92
2022-08-23T23:24:39.140Z,100385.38
2022-08-23T23:27:07.960Z,100384.98
2022-08-23T23:29:36.210Z,100387.30
2022-08-23T23:32:05.200Z,100383.91
2022-08-23T23:34:33.186Z,100387.84
2022-08-23T23:37:01.126Z,100389.59
2022-08-23T23:39:29.004Z,100389.92
2022-08-23T23:41:57.396Z,100389.02
2022-08-23T23:44:31.528Z,100391.59
2022-08-23T23:47:01.703Z,100391.70
2022-08-23T23:49:32.440Z,100392.95
2022-08-23T23:52:04.841Z,100391.52
2022-08-23T23:54:34.136Z,100391.16
2022-08-23T23:57:04.519Z,100391.90
2022-08-23T23:59:32.804Z,100390.00
